Time;durP1;ratioP1;P1;durP2;ratioP2;P2;SDS_P1;SDS_P2;PMS_P1;PMS_P2;Temp;Humidity;BMP_temperature;BMP_pressure;BME280_temperature;BME280_humidity;BME280_pressure;Samples;Min_cycle;Max_cycle;Signal;HPM_P1;HPM_P2
2023/06/20 00:00:48;;;;;;;8.60;5.75;;;;;;;20.06;91.80;96858.59;4988588;28;20038;-64
2023/06/20 00:03:16;;;;;;;8.23;5.50;;;;;;;20.10;91.47;96866.97;4996808;28;20501;-64
2023/06/20 00:05:43;;;;;;;8.93;5.40;;;;;;;20.16;91.01;96870.34;4993573;28;20048;-64
2023/06/20 00:08:10;;;;;;;6.78;5.40;;;;;;;20.22;90.43;96880.03;4995626;28;20049;-64
2023/06/20 00:10:37;;;;;;;6.70;5.80;;;;;;;20.37;89.50;96885.00;4992413;28;20049;-64
2023/06/20 00:13:03;;;;;;;11.00;5.93;;;;;;;20.43;88.62;96896.63;4990437;28;20046;-64
2023/06/20 00:15:30;;;;;;;8.88;5.28;;;;;;;20.57;87.47;96899.19;4993579;28;20410;-64
2023/06/20 00:18:00;;;;;;;7.88;5.18;;;;;;;20.67;86.78;96909.81;4992723;28;20038;-65
2023/06/20 00:20:29;;;;;;;7.53;5.00;;;;;;;20.83;85.59;96903.75;4988854;28;20046;-64
2023/06/20 00:22:56;;;;;;;8.73;5.15;;;;;;;20.96;84.42;96921.19;4991733;28;20044;-64
2023/06/20 00:25:23;;;;;;;7.00;5.53;;;;;;;21.04;84.68;96931.34;4991012;28;20054;-64
2023/06/20 00:27:50;;;;;;;6.80;5.65;;;;;;;21.13;85.42;96944.25;4992811;28;20034;-64
2023/06/20 00:30:16;;;;;;;7.57;5.30;;;;;;;21.29;85.20;96978.34;4992436;28;20088;-64
2023/06/20 00:32:43;;;;;;;8.48;5.57;;;;;;;21.33;84.66;97014.25;4974780;28;20568;-64
2023/06/20 00:35:10;;;;;;;6.72;5.05;;;;;;;21.18;87.20;97067.94;4988270;28;20043;-63
2023/06/20 00:37:38;;;;;;;15.95;6.43;;;;;;;20.97;89.31;97073.34;4989044;28;20476;-65
2023/06/20 00:40:08;;;;;;;9.23;6.57;;;;;;;20.70;92.56;97087.13;4990473;28;20077;-64
2023/06/20 00:42:35;;;;;;;9.85;6.22;;;;;;;20.52;95.25;97086.34;4992314;28;20078;-65
2023/06/20 00:45:03;;;;;;;9.63;6.00;;;;;;;20.35;96.19;97084.41;4999208;28;20049;-63
2023/06/20 00:47:29;;;;;;;10.25;6.95;;;;;;;20.07;100.00;97101.19;4976194;28;20038;-63
2023/06/20 00:49:56;;;;;;;9.80;6.05;;;;;;;19.95;100.00;97099.88;4987635;28;20042;-64
2023/06/20 00:52:24;;;;;;;9.50;6.60;;;;;;;19.83;100.00;97105.19;4987397;28;20039;-65
2023/06/20 00:54:51;;;;;;;8.60;5.72;;;;;;;19.63;100.00;97102.69;4987459;28;20049;-64
2023/06/20 00:57:19;;;;;;;8.85;6.13;;;;;;;19.56;100.00;97104.28;4988111;28;20066;-64
2023/06/20 00:59:49;;;;;;;8.63;6.18;;;;;;;19.44;100.00;97094.72;4998783;28;20038;-64
2023/06/20 01:02:16;;;;;;;12.30;6.60;;;;;;;19.22;100.00;97096.41;4968511;28;20417;-64
2023/06/20 01:04:47;;;;;;;7.85;5.80;;;;;;;19.07;100.00;97086.66;4996666;28;20280;-65
2023/06/20 01:07:24;;;;;;;9.80;5.85;;;;;;;18.96;100.00;97097.06;4990453;28;20033;-64
2023/06/20 01:10:08;;;;;;;9.48;6.70;;;;;;;18.76;100.00;97092.88;4973169;28;20066;-65
2023/06/20 01:12:53;;;;;;;9.30;6.70;;;;;;;18.70;100.00;97100.44;4977227;28;20054;-64
2023/06/20 01:15:42;;;;;;;9.25;7.10;;;;;;;18.76;100.00;97103.06;4971401;28;20535;-64
2023/06/20 01:18:36;;;;;;;11.10;7.22;;;;;;;18.64;100.00;97101.69;4990096;28;20038;-65
2023/06/20 01:21:13;;;;;;;9.05;7.03;;;;;;;18.63;100.00;97099.25;4979639;28;20054;-64
2023/06/20 01:23:47;;;;;;;11.07;7.45;;;;;;;18.61;100.00;97093.28;4970296;28;20557;-64
2023/06/20 01:26:23;;;;;;;8.70;7.32;;;;;;;18.62;100.00;97083.91;4983515;28;20038;-64
2023/06/20 01:29:17;;;;;;;15.30;7.22;;;;;;;18.62;100.00;97071.03;4989509;28;20528;-64
2023/06/20 01:31:52;;;;;;;9.73;8.02;;;;;;;18.61;100.00;97074.09;4953610;28;20424;-65
2023/06/20 01:34:23;;;;;;;9.63;7.53;;;;;;;18.57;100.00;97062.91;4988437;28;20038;-64
2023/06/20 01:36:57;;;;;;;10.70;8.15;;;;;;;18.62;100.00;97062.00;4992947;28;20106;-64
2023/06/20 01:39:45;;;;;;;8.95;7.43;;;;;;;18.57;100.00;97047.28;4993566;28;20046;-64
2023/06/20 01:42:15;;;;;;;8.60;7.13;;;;;;;18.51;100.00;97048.53;4992203;28;20046;-64
2023/06/20 01:44:43;;;;;;;10.15;6.78;;;;;;;18.44;100.00;97053.66;4991887;28;20517;-65
2023/06/20 01:47:11;;;;;;;9.00;7.45;;;;;;;18.51;100.00;97062.25;4990695;28;20038;-64
2023/06/20 01:49:39;;;;;;;10.35;6.75;;;;;;;18.52;100.00;97046.59;4991684;28;20413;-64
2023/06/20 01:52:07;;;;;;;7.82;5.90;;;;;;;18.45;100.00;97030.59;4974858;28;20044;-65
2023/06/20 01:54:36;;;;;;;8.23;6.10;;;;;;;18.52;100.00;97032.88;4996800;28;20122;-64
2023/06/20 01:57:04;;;;;;;6.88;4.72;;;;;;;18.48;100.00;97023.66;4972409;28;20590;-64
2023/06/20 01:59:32;;;;;;;8.25;5.47;;;;;;;18.48;100.00;97020.94;4982866;28;20402;-64
2023/06/20 02:02:00;;;;;;;6.13;4.68;;;;;;;18.42;100.00;97014.75;4974883;28;20112;-64
2023/06/20 02:04:27;;;;;;;6.50;4.65;;;;;;;18.39;100.00;97012.66;4975969;28;20054;-64
2023/06/20 02:06:55;;;;;;;5.80;4.22;;;;;;;18.43;100.00;97002.69;4988934;28;20034;-64
2023/06/20 02:09:23;;;;;;;6.03;4.47;;;;;;;18.42;100.00;96993.66;4978295;28;20501;-65
2023/06/20 02:11:50;;;;;;;6.32;3.78;;;;;;;18.28;100.00;96999.19;4992000;28;20049;-64
2023/06/20 02:14:17;;;;;;;6.88;3.63;;;;;;;18.12;100.00;96998.75;5001212;28;20053;-64
2023/06/20 02:16:47;;;;;;;7.05;3.83;;;;;;;18.17;100.00;97006.06;4973092;28;20445;-64
2023/06/20 02:19:13;;;;;;;7.22;3.28;;;;;;;18.23;100.00;97004.81;4989487;28;20054;-64
2023/06/20 02:21:43;;;;;;;6.03;3.30;;;;;;;18.24;100.00;97006.41;4990258;28;20042;-64
2023/06/20 02:24:14;;;;;;;6.28;3.33;;;;;;;18.23;100.00;97004.81;4997413;28;20382;-64
2023/06/20 02:26:44;;;;;;;6.15;3.90;;;;;;;18.25;100.00;97002.59;4973266;28;20676;-64
2023/06/20 02:29:12;;;;;;;6.70;3.90;;;;;;;18.20;100.00;96997.19;4989803;28;20042;-64
2023/06/20 02:31:43;;;;;;;8.10;3.90;;;;;;;18.11;100.00;96993.59;4994092;28;20056;-64
2023/06/20 02:34:13;;;;;;;7.88;4.45;;;;;;;17.85;100.00;96992.25;4992013;28;20529;-63
2023/06/20 02:36:43;;;;;;;8.18;4.35;;;;;;;17.89;100.00;96990.50;4974390;28;20048;-64
2023/06/20 02:39:10;;;;;;;6.55;4.50;;;;;;;17.99;100.00;96988.66;4972190;28;20084;-64
2023/06/20 02:41:41;;;;;;;7.10;3.65;;;;;;;18.01;100.00;96989.94;4988942;28;20097;-64
2023/06/20 02:44:07;;;;;;;6.25;3.80;;;;;;;17.91;100.00;96990.22;4999241;28;20049;-64
2023/06/20 02:47:22;;;;;;;5.88;3.75;;;;;;;17.77;100.00;97003.94;4995343;28;20046;-63
2023/06/20 02:50:22;;;;;;;7.97;4.28;;;;;;;17.71;100.00;96999.69;4990287;28;20068;-64
2023/06/20 02:53:14;;;;;;;7.65;3.83;;;;;;;17.74;100.00;97008.09;4973077;28;20289;-65
2023/06/20 02:55:53;;;;;;;4.72;3.58;;;;;;;17.64;100.00;97009.13;4994693;28;20040;-64
2023/06/20 02:58:22;;;;;;;6.65;4.30;;;;;;;17.69;100.00;97010.94;4971244;28;20133;-64
2023/06/20 03:00:52;;;;;;;7.18;4.47;;;;;;;17.70;100.00;97006.28;4970694;28;20750;-64
2023/06/20 03:03:29;;;;;;;6.45;4.45;;;;;;;17.53;100.00;97015.94;4971743;28;20066;-64
2023/06/20 03:05:57;;;;;;;6.55;4.47;;;;;;;17.57;100.00;97018.88;4974583;28;20042;-64
2023/06/20 03:08:27;;;;;;;8.18;4.20;;;;;;;17.47;100.00;97020.69;4976379;28;20065;-64
2023/06/20 03:10:55;;;;;;;6.72;3.90;;;;;;;17.49;100.00;97017.66;4981064;28;20042;-64
2023/06/20 03:13:22;;;;;;;6.25;4.30;;;;;;;17.50;100.00;97017.34;4993376;28;20060;-65
2023/06/20 03:15:51;;;;;;;6.57;4.57;;;;;;;17.51;100.00;97018.97;4971180;28;20495;-64
2023/06/20 03:18:19;;;;;;;6.75;4.45;;;;;;;17.52;100.00;97025.28;4971702;28;20047;-64
2023/06/20 03:20:48;;;;;;;6.18;4.50;;;;;;;17.25;100.00;97021.44;4969356;28;20048;-65
2023/06/20 03:23:16;;;;;;;7.97;5.18;;;;;;;17.15;100.00;97020.50;4999078;28;20049;-64
2023/06/20 03:25:43;;;;;;;6.07;4.63;;;;;;;17.06;100.00;97038.75;4979773;28;20058;-64
2023/06/20 03:28:10;;;;;;;7.93;5.47;;;;;;;17.07;100.00;97034.91;4973774;28;20733;-64
2023/06/20 03:30:38;;;;;;;7.78;4.97;;;;;;;16.93;100.00;97034.03;4972476;28;20100;-64
2023/06/20 03:33:06;;;;;;;7.60;5.38;;;;;;;16.91;100.00;97045.28;4972607;28;20299;-65
2023/06/20 03:35:33;;;;;;;8.82;4.85;;;;;;;16.75;100.00;97033.81;4989153;28;20460;-64
2023/06/20 03:38:00;;;;;;;8.95;4.97;;;;;;;16.83;100.00;97035.88;4970582;28;20449;-65
2023/06/20 03:40:27;;;;;;;7.53;5.30;;;;;;;16.85;100.00;97041.03;4996002;28;20157;-65
2023/06/20 03:42:55;;;;;;;7.22;4.80;;;;;;;16.93;100.00;97029.41;4983414;28;20045;-63
2023/06/20 03:45:22;;;;;;;7.22;4.43;;;;;;;16.86;100.00;97015.31;4974443;28;20034;-65
2023/06/20 03:47:50;;;;;;;6.38;4.35;;;;;;;16.86;100.00;97016.13;4982027;28;20065;-64
2023/06/20 03:50:19;;;;;;;6.35;4.35;;;;;;;17.01;100.00;97011.47;4977243;28;20115;-65
2023/06/20 03:52:46;;;;;;;5.90;4.47;;;;;;;16.97;100.00;97011.28;4970843;28;20042;-64
2023/06/20 03:55:13;;;;;;;8.00;5.00;;;;;;;16.92;100.00;97005.09;4988688;28;20133;-63
2023/06/20 03:57:40;;;;;;;6.78;4.78;;;;;;;16.93;100.00;96999.31;4975408;28;20088;-64
2023/06/20 04:00:11;;;;;;;8.23;5.10;;;;;;;16.93;100.00;97010.25;4970179;28;20042;-65
2023/06/20 04:02:43;;;;;;;7.25;4.00;;;;;;;17.01;100.00;97003.25;4994426;28;20122;-64
2023/06/20 04:05:11;;;;;;;5.88;4.20;;;;;;;17.12;100.00;96992.97;4977575;28;20452;-64
2023/06/20 04:07:41;;;;;;;8.18;4.80;;;;;;;17.11;100.00;96994.91;4973751;28;20097;-64
2023/06/20 04:10:13;;;;;;;7.28;4.57;;;;;;;17.10;100.00;97000.69;4995344;28;20042;-64
2023/06/20 04:12:41;;;;;;;9.13;4.45;;;;;;;17.10;100.00;96995.22;4989144;28;20089;-64
2023/06/20 04:15:08;;;;;;;7.65;4.70;;;;;;;17.22;100.00;97009.19;4991874;28;20049;-64
2023/06/20 04:17:37;;;;;;;7.78;4.93;;;;;;;17.35;100.00;96996.59;4988266;28;20049;-64
2023/06/20 04:20:11;;;;;;;9.52;4.13;;;;;;;17.46;100.00;96994.47;4992165;28;20506;-64
2023/06/20 04:22:42;;;;;;;6.07;4.35;;;;;;;17.52;100.00;96990.50;4974943;28;20042;-64
2023/06/20 04:25:09;;;;;;;7.30;5.20;;;;;;;17.63;100.00;96982.88;4974908;28;20521;-64
2023/06/20 04:27:36;;;;;;;6.63;4.18;;;;;;;17.67;100.00;96994.84;4969855;28;20054;-63
2023/06/20 04:30:05;;;;;;;7.78;5.10;;;;;;;17.67;100.00;96988.53;4969753;28;20080;-65
2023/06/20 04:32:33;;;;;;;7.63;4.47;;;;;;;17.66;100.00;96986.94;4972560;28;20061;-64
2023/06/20 04:34:59;;;;;;;9.02;4.97;;;;;;;17.77;100.00;96974.59;4969941;28;20049;-64
2023/06/20 04:37:29;;;;;;;14.57;5.13;;;;;;;17.80;100.00;96984.16;4997301;28;20041;-64
2023/06/20 04:39:58;;;;;;;7.13;4.65;;;;;;;17.79;100.00;96985.25;4979381;28;20073;-64
2023/06/20 04:42:24;;;;;;;6.15;4.63;;;;;;;17.86;100.00;96990.31;4981173;28;20061;-63
2023/06/20 04:44:51;;;;;;;8.20;4.03;;;;;;;17.91;100.00;96984.72;4982048;28;20038;-65
2023/06/20 04:47:18;;;;;;;9.88;4.80;;;;;;;17.87;100.00;96992.72;4974212;28;20045;-65
2023/06/20 04:49:44;;;;;;;7.40;4.88;;;;;;;17.87;100.00;96984.53;4973234;28;20490;-64
2023/06/20 04:52:11;;;;;;;6.50;4.53;;;;;;;17.95;100.00;96991.22;4987367;28;20494;-64
2023/06/20 04:54:37;;;;;;;6.65;4.30;;;;;;;18.18;100.00;96994.78;4987431;28;20054;-64
2023/06/20 04:57:04;;;;;;;6.82;4.35;;;;;;;18.19;100.00;96995.59;4969853;28;20054;-65
2023/06/20 04:59:31;;;;;;;7.03;4.53;;;;;;;18.26;100.00;96995.16;4972860;28;20062;-65
2023/06/20 05:01:58;;;;;;;7.50;3.92;;;;;;;18.31;100.00;96997.75;4991458;28;20386;-64
2023/06/20 05:04:25;;;;;;;7.68;4.63;;;;;;;18.33;100.00;96996.31;4972085;28;20501;-63
2023/06/20 05:06:51;;;;;;;7.40;4.88;;;;;;;18.33;100.00;96992.78;4986884;28;20039;-64
2023/06/20 05:09:18;;;;;;;8.23;4.75;;;;;;;18.30;100.00;96998.88;4976875;28;20561;-65
2023/06/20 05:11:44;;;;;;;7.57;4.40;;;;;;;18.27;100.00;96997.59;4988248;28;20042;-64
2023/06/20 05:14:11;;;;;;;6.97;4.63;;;;;;;18.31;100.00;97005.97;5000851;28;20109;-65
2023/06/20 05:16:37;;;;;;;5.55;4.20;;;;;;;18.28;100.00;97012.09;4998005;28;20052;-64
2023/06/20 05:19:04;;;;;;;6.55;4.55;;;;;;;18.28;100.00;97001.94;4997528;28;20038;-65
2023/06/20 05:21:30;;;;;;;10.20;5.10;;;;;;;18.37;100.00;97007.50;4992787;28;20050;-63
2023/06/20 05:23:57;;;;;;;7.43;4.93;;;;;;;18.45;100.00;97016.88;4990178;28;20039;-64
2023/06/20 05:26:23;;;;;;;6.45;4.03;;;;;;;18.51;100.00;97015.66;4990356;28;20133;-64
2023/06/20 05:28:51;;;;;;;7.03;4.60;;;;;;;18.64;100.00;97010.41;4990985;28;20736;-64
2023/06/20 05:31:17;;;;;;;7.55;4.80;;;;;;;18.72;100.00;97015.91;4993456;28;20609;-64
2023/06/20 05:33:44;;;;;;;6.63;4.65;;;;;;;18.83;100.00;97010.97;5000559;28;20117;-65
2023/06/20 05:36:11;;;;;;;8.35;5.22;;;;;;;18.94;100.00;97011.50;4993536;28;20038;-64
2023/06/20 05:38:37;;;;;;;9.77;5.07;;;;;;;19.02;100.00;97011.88;4997649;28;20061;-64
2023/06/20 05:41:04;;;;;;;8.55;4.97;;;;;;;19.05;100.00;97014.00;4991998;28;20571;-65
2023/06/20 05:43:30;;;;;;;9.60;5.10;;;;;;;19.16;100.00;97007.09;4995758;28;20050;-63
2023/06/20 05:45:58;;;;;;;7.97;4.50;;;;;;;19.24;100.00;97017.28;4988222;28;20073;-63
2023/06/20 05:48:25;;;;;;;9.35;4.90;;;;;;;19.30;100.00;97017.97;4990632;28;20050;-65
2023/06/20 05:50:52;;;;;;;7.47;5.03;;;;;;;19.35;100.00;97009.56;4994200;28;20043;-65
2023/06/20 05:53:20;;;;;;;8.77;4.75;;;;;;;19.35;100.00;97017.81;4989845;28;20137;-65
2023/06/20 05:55:50;;;;;;;13.93;5.88;;;;;;;19.48;100.00;97013.34;5004223;28;20034;-64
2023/06/20 05:58:18;;;;;;;8.45;4.82;;;;;;;19.45;100.00;97013.16;4990194;28;20428;-64
2023/06/20 06:00:45;;;;;;;7.32;4.93;;;;;;;19.47;100.00;97002.66;4990302;28;20525;-65
2023/06/20 06:03:13;;;;;;;9.30;5.00;;;;;;;19.52;100.00;97009.94;4989425;28;20062;-64
2023/06/20 06:05:39;;;;;;;7.18;5.00;;;;;;;19.60;100.00;97015.47;4989830;28;20078;-64
2023/06/20 06:08:06;;;;;;;6.75;5.25;;;;;;;19.73;98.61;97010.16;4992341;28;20085;-64
2023/06/20 06:10:32;;;;;;;7.63;5.10;;;;;;;19.84;98.94;97018.88;4985784;28;20050;-65
2023/06/20 06:12:59;;;;;;;7.55;5.07;;;;;;;19.91;98.49;97016.47;4988363;28;20596;-64
2023/06/20 06:15:25;;;;;;;7.95;5.75;;;;;;;19.94;98.95;97015.81;4988861;28;20105;-64
2023/06/20 06:17:52;;;;;;;7.05;5.03;;;;;;;19.98;98.17;97019.56;4988845;28;20039;-64
2023/06/20 06:20:19;;;;;;;8.10;5.45;;;;;;;20.03;97.53;97018.59;4989755;28;20039;-65
2023/06/20 06:22:46;;;;;;;7.43;5.10;;;;;;;20.16;96.01;97024.25;4987994;28;21289;-64
2023/06/20 06:25:13;;;;;;;10.32;5.13;;;;;;;20.14;95.37;97032.81;4988576;28;20038;-65
2023/06/20 06:27:40;;;;;;;7.85;5.72;;;;;;;20.22;95.42;97033.94;4989793;28;20506;-63
2023/06/20 06:30:08;;;;;;;7.38;5.03;;;;;;;20.28;95.64;97030.72;4989277;28;20057;-65
2023/06/20 06:32:36;;;;;;;8.70;5.63;;;;;;;20.33;94.19;97027.00;4987879;28;20048;-64
2023/06/20 06:35:05;;;;;;;8.50;5.65;;;;;;;20.36;94.19;97033.78;4988364;28;20100;-64
2023/06/20 06:37:32;;;;;;;8.32;6.00;;;;;;;20.42;94.02;97032.50;4988436;28;20050;-64
2023/06/20 06:39:59;;;;;;;8.02;5.35;;;;;;;20.48;92.91;97033.94;4989019;28;20038;-64
2023/06/20 06:42:26;;;;;;;7.80;5.75;;;;;;;20.57;92.77;97033.94;4987861;28;20117;-64
2023/06/20 06:44:53;;;;;;;7.05;5.10;;;;;;;20.78;92.21;97038.72;4987905;28;20073;-64
2023/06/20 06:47:20;;;;;;;8.98;5.20;;;;;;;20.75;91.19;97033.91;4988532;28;20413;-63
2023/06/20 06:49:46;;;;;;;7.57;5.25;;;;;;;20.87;91.22;97031.31;4989715;28;20054;-63
2023/06/20 06:52:13;;;;;;;10.25;5.55;;;;;;;20.91;90.14;97026.75;4986342;28;20058;-63
2023/06/20 06:54:39;;;;;;;8.68;5.80;;;;;;;21.00;89.55;97028.66;4988748;28;20042;-64
2023/06/20 06:57:06;;;;;;;7.85;5.32;;;;;;;21.14;88.58;97029.25;4988894;28;20053;-63
2023/06/20 06:59:32;;;;;;;11.38;5.80;;;;;;;21.31;87.07;97025.59;4987667;28;20042;-63
2023/06/20 07:01:59;;;;;;;8.32;5.15;;;;;;;21.38;85.18;97027.84;4987119;28;20038;-63
2023/06/20 07:04:25;;;;;;;8.38;5.60;;;;;;;21.40;85.91;97028.31;4988206;28;20391;-64
2023/06/20 07:06:52;;;;;;;10.13;5.57;;;;;;;21.50;85.39;97021.63;4987232;28;20109;-64
2023/06/20 07:09:19;;;;;;;9.38;5.55;;;;;;;21.55;84.66;97026.13;4991970;28;20565;-63
2023/06/20 07:11:45;;;;;;;10.38;5.60;;;;;;;21.67;85.12;97023.47;4988647;28;21844;-63
2023/06/20 07:14:12;;;;;;;8.23;5.05;;;;;;;21.82;83.51;97027.59;4987151;28;20665;-63
2023/06/20 07:16:38;;;;;;;8.85;5.47;;;;;;;21.94;81.37;97026.09;4987136;28;20054;-63
2023/06/20 07:19:25;;;;;;;12.40;5.55;;;;;;;22.07;82.60;97033.28;4984329;28;20042;-63
2023/06/20 07:21:52;;;;;;;7.88;5.30;;;;;;;22.10;83.30;97029.03;4986796;28;20041;-63
2023/06/20 07:24:19;;;;;;;9.73;5.35;;;;;;;22.18;84.27;97030.09;4987814;28;20030;-63
2023/06/20 07:26:45;;;;;;;7.03;5.30;;;;;;;22.29;83.68;97025.78;4986828;28;20077;-64
2023/06/20 07:29:12;;;;;;;8.82;5.50;;;;;;;22.43;83.85;97028.25;4986622;28;20042;-64
2023/06/20 07:31:38;;;;;;;8.45;5.30;;;;;;;22.55;82.84;97032.25;4986397;28;20058;-64
2023/06/20 07:34:05;;;;;;;10.00;5.68;;;;;;;22.59;81.38;97033.97;4986697;28;20042;-63
2023/06/20 07:36:31;;;;;;;7.43;4.85;;;;;;;22.68;81.08;97039.41;4986462;28;20416;-63
2023/06/20 07:38:58;;;;;;;8.82;5.03;;;;;;;22.85;80.69;97034.88;4984895;28;20038;-63
2023/06/20 07:41:24;;;;;;;9.50;5.75;;;;;;;22.82;79.34;97033.56;4987406;28;20076;-63
2023/06/20 07:43:51;;;;;;;8.98;6.03;;;;;;;22.90;79.05;97026.38;4987182;28;20084;-63
2023/06/20 07:46:17;;;;;;;7.75;5.30;;;;;;;23.05;77.96;97033.16;4987856;28;20859;-63
2023/06/20 07:48:46;;;;;;;7.38;5.07;;;;;;;23.25;78.05;97030.66;4986804;28;20047;-63
2023/06/20 07:51:13;;;;;;;8.68;5.03;;;;;;;23.35;76.77;97030.22;4986937;28;20042;-63
2023/06/20 07:53:40;;;;;;;6.90;5.05;;;;;;;23.42;76.94;97042.66;4986137;28;20109;-64
2023/06/20 07:56:07;;;;;;;8.68;5.68;;;;;;;23.55;76.89;97037.94;4987659;28;20121;-63
2023/06/20 07:58:33;;;;;;;9.60;6.03;;;;;;;23.73;75.65;97036.53;4987301;28;20034;-63
2023/06/20 08:01:00;;;;;;;6.97;5.32;;;;;;;23.96;76.24;97022.22;4985767;28;20047;-63
2023/06/20 08:03:26;;;;;;;7.28;5.13;;;;;;;24.09;73.74;97028.50;4987022;28;20045;-63
2023/06/20 08:05:53;;;;;;;10.25;5.22;;;;;;;24.15;74.43;97029.09;4986967;28;20050;-64
2023/06/20 08:08:20;;;;;;;6.45;4.60;;;;;;;24.26;73.03;97035.78;4986913;28;20046;-63
2023/06/20 08:10:46;;;;;;;8.07;4.97;;;;;;;23.91;73.66;97027.97;4986893;28;20048;-64
2023/06/20 08:13:13;;;;;;;8.18;5.68;;;;;;;23.84;76.00;97025.81;4986034;28;20047;-63
2023/06/20 08:15:39;;;;;;;10.68;5.53;;;;;;;23.66;75.38;97027.22;4985797;28;20456;-63
2023/06/20 08:18:06;;;;;;;7.57;5.25;;;;;;;23.77;75.66;97040.22;4986213;28;20100;-64
2023/06/20 08:20:33;;;;;;;8.43;5.20;;;;;;;23.81;74.59;97031.22;4985832;28;20046;-64
2023/06/20 08:22:59;;;;;;;7.10;4.97;;;;;;;23.89;75.14;97033.06;4984936;28;20437;-64
2023/06/20 08:25:26;;;;;;;7.60;5.28;;;;;;;23.90;74.33;97031.91;4986491;28;20043;-63
2023/06/20 08:27:53;;;;;;;8.68;5.80;;;;;;;23.98;73.94;97036.50;4986491;28;20125;-64
2023/06/20 08:30:39;;;;;;;8.88;5.40;;;;;;;24.09;74.38;97027.69;4987099;28;20046;-63
2023/06/20 08:33:05;;;;;;;8.40;5.45;;;;;;;24.24;73.58;97031.72;4985442;28;20116;-63
2023/06/20 08:35:32;;;;;;;8.70;5.30;;;;;;;24.28;70.28;97032.63;4987092;28;20077;-63
2023/06/20 08:37:59;;;;;;;10.20;5.38;;;;;;;24.11;70.19;97017.13;4983509;28;20072;-64
2023/06/20 08:40:25;;;;;;;10.07;5.85;;;;;;;24.11;71.41;97017.13;4985928;28;20424;-64
2023/06/20 08:42:55;;;;;;;9.00;5.10;;;;;;;24.09;71.20;97014.69;4985107;28;21307;-64
2023/06/20 08:45:22;;;;;;;7.18;5.47;;;;;;;24.37;71.21;97022.25;4987127;28;20502;-63
2023/06/20 08:47:48;;;;;;;8.75;5.35;;;;;;;24.42;70.27;97021.97;4985447;28;20046;-63
2023/06/20 08:50:15;;;;;;;8.55;5.60;;;;;;;24.60;69.20;97020.84;4985683;28;20045;-63
2023/06/20 08:52:47;;;;;;;8.00;5.00;;;;;;;24.59;69.13;97010.94;4985567;28;20125;-63
2023/06/20 08:55:15;;;;;;;9.02;5.43;;;;;;;24.57;68.26;97014.06;4985841;28;20117;-62
2023/06/20 08:57:45;;;;;;;8.85;6.00;;;;;;;24.59;67.68;97019.25;4986120;28;20041;-64
2023/06/20 09:00:21;;;;;;;8.93;5.68;;;;;;;24.61;67.73;97012.19;4985585;28;20049;-63
2023/06/20 09:02:53;;;;;;;9.75;5.40;;;;;;;24.78;68.29;97015.81;4985471;28;20089;-64
2023/06/20 09:05:20;;;;;;;9.88;5.30;;;;;;;24.96;65.79;97012.72;4981838;28;20701;-63
2023/06/20 09:07:47;;;;;;;7.35;4.80;;;;;;;24.90;64.12;97004.69;4985783;28;20606;-64
2023/06/20 09:10:19;;;;;;;7.75;5.13;;;;;;;25.08;65.06;97012.63;4986458;28;20041;-64
2023/06/20 09:12:48;;;;;;;8.82;5.38;;;;;;;25.15;60.80;97000.94;4986359;28;20044;-64
2023/06/20 09:15:20;;;;;;;8.63;5.45;;;;;;;25.22;61.39;97003.06;4986171;28;20568;-65
2023/06/20 09:17:51;;;;;;;7.63;4.80;;;;;;;25.24;60.99;96998.78;4985455;28;20476;-65
2023/06/20 09:20:18;;;;;;;7.43;4.75;;;;;;;25.35;60.90;97004.56;4981349;28;20034;-64
2023/06/20 09:22:45;;;;;;;7.93;5.32;;;;;;;25.43;59.45;96995.25;4985543;28;20129;-63
2023/06/20 09:25:12;;;;;;;7.32;4.78;;;;;;;25.55;60.25;96996.31;4985368;28;20053;-64
2023/06/20 09:27:41;;;;;;;6.63;4.70;;;;;;;25.76;59.22;97001.56;4984027;28;20081;-64
2023/06/20 09:30:08;;;;;;;9.30;5.28;;;;;;;25.75;57.30;96985.31;4985468;28;20066;-65
2023/06/20 09:32:42;;;;;;;7.25;4.63;;;;;;;25.78;55.32;96979.84;4985510;28;20069;-65
2023/06/20 09:35:10;;;;;;;8.05;4.30;;;;;;;25.85;54.67;96984.75;4985447;28;20042;-64
2023/06/20 09:37:40;;;;;;;8.80;4.75;;;;;;;25.89;55.40;96971.75;4986051;28;20050;-63
2023/06/20 09:40:14;;;;;;;7.38;5.00;;;;;;;26.02;55.78;96966.84;4985239;28;20049;-63
2023/06/20 09:42:42;;;;;;;7.10;4.55;;;;;;;26.16;54.88;96976.66;4985378;28;20047;-64
2023/06/20 09:45:11;;;;;;;6.63;4.40;;;;;;;26.21;53.46;96966.03;4986032;28;20042;-63
2023/06/20 09:47:39;;;;;;;7.43;4.70;;;;;;;26.30;54.60;96967.81;4985776;28;20141;-64
2023/06/20 09:50:13;;;;;;;8.38;4.80;;;;;;;26.58;54.07;96970.38;4985629;28;20049;-63
2023/06/20 09:52:44;;;;;;;8.25;4.75;;;;;;;26.69;51.66;96973.34;4985210;28;20077;-63
2023/06/20 09:55:15;;;;;;;8.02;4.78;;;;;;;26.62;51.22;96965.69;4985258;28;20053;-63
2023/06/20 09:57:47;;;;;;;7.45;4.40;;;;;;;26.76;53.68;96958.78;4986935;28;20050;-65
2023/06/20 10:00:14;;;;;;;6.13;4.10;;;;;;;26.87;51.67;96968.06;4988071;28;20063;-65
2023/06/20 10:02:44;;;;;;;8.75;4.82;;;;;;;26.97;52.28;96958.34;4988278;28;20129;-64
2023/06/20 10:05:16;;;;;;;8.60;3.78;;;;;;;27.08;47.05;96969.63;4989374;28;20125;-64
2023/06/20 10:07:44;;;;;;;6.25;3.88;;;;;;;27.11;46.70;96968.09;4988175;28;20133;-64
2023/06/20 10:10:13;;;;;;;6.38;3.80;;;;;;;27.10;43.57;96958.97;4988534;28;20602;-64
2023/06/20 10:12:41;;;;;;;6.03;3.75;;;;;;;27.20;48.25;96967.84;4988111;28;20152;-65
2023/06/20 10:15:09;;;;;;;7.30;4.22;;;;;;;27.10;49.34;96960.94;4988085;28;20077;-65
2023/06/20 10:17:40;;;;;;;8.63;4.43;;;;;;;27.23;50.97;96958.78;4988359;28;20047;-64
2023/06/20 10:20:22;;;;;;;6.90;3.80;;;;;;;27.48;47.48;96956.34;4988655;28;20114;-65
2023/06/20 10:22:49;;;;;;;7.60;4.00;;;;;;;27.48;46.32;96958.31;4987596;28;20062;-64
2023/06/20 10:25:18;;;;;;;6.10;4.25;;;;;;;27.63;49.33;96962.94;4988796;28;20046;-64
2023/06/20 10:27:54;;;;;;;8.88;4.20;;;;;;;27.84;48.88;96961.66;4987840;28;20047;-65
2023/06/20 10:30:55;;;;;;;7.18;3.85;;;;;;;27.96;47.46;96957.81;4983645;28;20048;-64
2023/06/20 10:33:32;;;;;;;6.63;4.10;;;;;;;28.00;49.10;96957.84;4982990;28;20049;-64
2023/06/20 10:36:12;;;;;;;5.63;3.40;;;;;;;28.01;44.63;96962.25;4970750;28;20046;-63
2023/06/20 10:39:02;;;;;;;7.03;4.00;;;;;;;28.08;45.29;96961.53;4987630;28;20463;-62
2023/06/20 10:41:29;;;;;;;6.68;3.88;;;;;;;28.23;43.75;96965.28;4988443;28;20081;-63
2023/06/20 10:44:00;;;;;;;7.28;4.05;;;;;;;28.33;45.38;96953.50;4986726;28;20046;-63
2023/06/20 10:46:36;;;;;;;11.05;4.15;;;;;;;28.43;45.08;96952.00;4988247;28;20050;-63
2023/06/20 10:49:03;;;;;;;6.90;4.05;;;;;;;28.52;44.91;96952.50;4988556;28;20121;-62
2023/06/20 10:51:30;;;;;;;9.07;4.40;;;;;;;28.62;46.00;96950.19;4988290;28;20053;-63
2023/06/20 10:54:09;;;;;;;7.35;4.60;;;;;;;28.62;44.85;96950.19;4986739;28;20568;-63
2023/06/20 10:56:36;;;;;;;7.95;4.10;;;;;;;28.61;44.16;96956.97;4988580;28;20082;-62
2023/06/20 10:59:13;;;;;;;5.03;3.50;;;;;;;28.61;45.40;96951.41;4987980;28;20038;-64
2023/06/20 11:01:40;;;;;;;7.97;4.57;;;;;;;28.67;46.18;96947.88;4986821;28;20046;-64
2023/06/20 11:04:08;;;;;;;8.27;5.63;;;;;;;28.69;45.36;96945.53;4987463;28;20544;-65
2023/06/20 11:06:35;;;;;;;6.50;3.78;;;;;;;28.77;44.26;96945.56;4987455;28;20050;-65
2023/06/20 11:09:02;;;;;;;7.38;4.47;;;;;;;28.80;43.48;96944.81;4987179;28;20228;-65
2023/06/20 11:11:39;;;;;;;10.13;4.30;;;;;;;28.80;44.28;96934.47;4987931;28;20125;-65
2023/06/20 11:14:11;;;;;;;6.65;4.20;;;;;;;28.95;42.42;96938.22;4985422;28;20046;-63
2023/06/20 11:16:39;;;;;;;8.27;4.70;;;;;;;28.94;42.75;96931.03;4987644;28;20046;-65
2023/06/20 11:19:05;;;;;;;6.85;4.50;;;;;;;28.93;41.77;96929.44;4987509;28;20030;-64
2023/06/20 11:21:44;;;;;;;9.10;4.40;;;;;;;28.97;41.81;96923.91;4986680;28;20521;-63
2023/06/20 11:24:11;;;;;;;7.45;4.13;;;;;;;29.02;40.91;96931.91;4987342;28;20046;-63
2023/06/20 11:26:38;;;;;;;8.02;4.20;;;;;;;29.12;40.52;96924.81;4987141;28;20046;-65
2023/06/20 11:29:05;;;;;;;6.47;4.00;;;;;;;29.23;40.45;96922.09;4987262;28;20049;-63
2023/06/20 11:31:40;;;;;;;8.75;4.22;;;;;;;29.34;40.16;96922.16;4986685;28;20129;-65
2023/06/20 11:34:11;;;;;;;9.35;4.70;;;;;;;29.56;39.25;96911.94;4986605;28;20498;-63
2023/06/20 11:36:39;;;;;;;8.02;4.20;;;;;;;29.65;39.33;96917.19;4987068;28;20042;-64
2023/06/20 11:39:08;;;;;;;7.18;3.85;;;;;;;29.63;39.37;96916.75;4986964;28;20058;-64